Time;durP1;ratioP1;P1;durP2;ratioP2;P2;SDS_P1;SDS_P2;PMS_P1;PMS_P2;Temp;Humidity;BMP_temperature;BMP_pressure;BME280_temperature;BME280_humidity;BME280_pressure;Samples;Min_cycle;Max_cycle;Signal;HPM_P1;HPM_P2
2023/12/16 00:00:51;;;;;;;7.25;3.55;;;6.10;99.90;;;;;;5022566;28;20041;-80
2023/12/16 00:03:16;;;;;;;9.38;4.32;;;6.10;99.90;;;;;;5015995;28;20461;-79
2023/12/16 00:05:42;;;;;;;7.95;4.20;;;6.10;99.90;;;;;;5016557;28;20156;-80
2023/12/16 00:08:07;;;;;;;7.20;3.60;;;6.10;99.90;;;;;;5021395;28;20334;-78
2023/12/16 00:10:33;;;;;;;7.25;4.15;;;6.10;99.90;;;;;;5028239;28;20069;-79
2023/12/16 00:12:58;;;;;;;16.45;4.63;;;6.10;99.90;;;;;;5029115;28;20162;-79
2023/12/16 00:15:24;;;;;;;8.77;4.22;;;6.10;99.90;;;;;;5019525;28;20132;-79
2023/12/16 00:17:49;;;;;;;6.95;4.32;;;6.10;99.90;;;;;;5021857;28;20040;-79
2023/12/16 00:20:15;;;;;;;9.45;4.72;;;6.10;99.90;;;;;;5013295;28;20117;-79
2023/12/16 00:22:40;;;;;;;8.52;4.07;;;6.10;99.90;;;;;;5024234;28;20034;-78
2023/12/16 00:25:07;;;;;;;8.98;4.30;;;6.10;99.90;;;;;;5020135;28;20034;-79
2023/12/16 00:27:33;;;;;;;10.52;3.95;;;6.10;99.90;;;;;;5020405;28;20029;-79
2023/12/16 00:29:58;;;;;;;8.50;3.72;;;6.10;99.90;;;;;;5019541;28;20037;-80
2023/12/16 00:32:24;;;;;;;7.85;4.00;;;6.10;99.90;;;;;;5021655;28;20033;-80
2023/12/16 00:34:49;;;;;;;5.50;3.15;;;6.10;99.90;;;;;;5021907;28;20055;-81
2023/12/16 00:37:15;;;;;;;7.40;3.15;;;6.10;99.90;;;;;;5019943;28;20037;-79
2023/12/16 00:39:40;;;;;;;6.82;3.92;;;6.00;99.90;;;;;;5024453;28;20041;-79
2023/12/16 00:42:07;;;;;;;9.25;3.28;;;6.00;99.90;;;;;;5026404;28;20028;-80
2023/12/16 00:44:33;;;;;;;5.20;2.85;;;5.90;99.90;;;;;;5029261;28;20449;-79
2023/12/16 00:46:59;;;;;;;6.53;3.00;;;5.90;99.90;;;;;;5023144;28;20058;-80
2023/12/16 00:49:25;;;;;;;5.97;2.90;;;5.90;99.90;;;;;;5018282;28;20029;-79
2023/12/16 00:51:50;;;;;;;5.80;2.60;;;5.80;99.90;;;;;;5019500;28;20033;-78
2023/12/16 00:54:16;;;;;;;6.20;3.03;;;5.80;99.90;;;;;;5027195;28;20113;-79
2023/12/16 00:56:41;;;;;;;8.10;3.00;;;5.70;99.90;;;;;;5031114;28;20024;-79
2023/12/16 00:59:07;;;;;;;4.97;2.58;;;5.70;99.90;;;;;;5026435;28;20136;-79
2023/12/16 01:01:32;;;;;;;6.10;2.58;;;5.60;99.90;;;;;;5022983;28;20115;-78
2023/12/16 01:03:58;;;;;;;6.05;1.90;;;5.60;99.90;;;;;;5025606;28;20030;-79
2023/12/16 01:06:24;;;;;;;3.85;1.98;;;5.60;99.90;;;;;;5022079;28;20194;-79
2023/12/16 01:08:49;;;;;;;7.53;2.50;;;5.60;99.90;;;;;;5025420;28;20074;-79
2023/12/16 01:11:15;;;;;;;6.10;2.13;;;5.60;99.90;;;;;;5020275;28;20046;-81
2023/12/16 01:13:40;;;;;;;5.50;2.35;;;5.50;99.90;;;;;;5024766;28;20121;-79
2023/12/16 01:16:06;;;;;;;6.03;2.22;;;5.60;99.90;;;;;;5017606;28;20060;-79
2023/12/16 01:18:31;;;;;;;4.43;2.45;;;5.60;99.90;;;;;;5021774;28;20052;-80
2023/12/16 01:20:57;;;;;;;9.23;3.00;;;5.70;99.90;;;;;;5025501;28;20044;-79
2023/12/16 01:23:22;;;;;;;4.90;2.53;;;5.70;99.90;;;;;;5023390;28;20034;-78
2023/12/16 01:25:48;;;;;;;4.78;2.35;;;5.70;99.90;;;;;;5014270;28;20105;-79
2023/12/16 01:28:13;;;;;;;7.00;2.53;;;5.80;99.90;;;;;;5014479;28;20044;-79
2023/12/16 01:30:39;;;;;;;6.10;2.35;;;5.80;99.90;;;;;;5015499;28;20053;-79
2023/12/16 01:33:04;;;;;;;5.95;2.00;;;5.80;99.90;;;;;;5012584;28;20038;-79
2023/12/16 01:35:30;;;;;;;5.82;2.90;;;5.90;99.90;;;;;;5015030;28;20092;-79
2023/12/16 01:37:55;;;;;;;7.80;2.30;;;5.90;99.90;;;;;;5012661;28;20056;-80
2023/12/16 01:40:21;;;;;;;3.78;2.08;;;5.90;99.90;;;;;;5014054;28;20044;-80
2023/12/16 01:42:46;;;;;;;5.60;2.50;;;5.90;99.90;;;;;;5018811;28;20056;-78
2023/12/16 01:45:14;;;;;;;3.63;1.88;;;6.00;99.90;;;;;;5016389;28;20046;-80
2023/12/16 01:47:40;;;;;;;5.53;2.92;;;6.00;99.90;;;;;;5016048;28;20466;-80
2023/12/16 01:50:06;;;;;;;5.60;2.05;;;6.10;99.90;;;;;;5011220;28;20042;-79
2023/12/16 01:52:32;;;;;;;6.22;2.25;;;6.10;99.90;;;;;;5011449;28;20152;-78
2023/12/16 01:54:58;;;;;;;6.38;2.20;;;6.10;99.90;;;;;;5015723;28;20362;-80
2023/12/16 01:57:23;;;;;;;4.07;1.83;;;6.10;99.90;;;;;;5017344;28;20041;-79
2023/12/16 01:59:49;;;;;;;4.88;1.90;;;6.10;99.90;;;;;;5024462;28;20048;-80
2023/12/16 02:02:17;;;;;;;6.47;2.10;;;6.00;99.90;;;;;;5015501;28;20153;-80
2023/12/16 02:04:42;;;;;;;3.83;2.00;;;6.10;99.90;;;;;;5022074;28;20060;-79
2023/12/16 02:07:08;;;;;;;2.78;1.73;;;6.00;99.90;;;;;;5019844;28;20113;-79
2023/12/16 02:09:33;;;;;;;5.00;2.15;;;6.10;99.90;;;;;;5014163;28;20042;-79
2023/12/16 02:11:58;;;;;;;4.70;2.47;;;6.10;99.90;;;;;;5018039;28;20038;-79
2023/12/16 02:14:24;;;;;;;5.13;2.00;;;6.10;99.90;;;;;;5018451;28;20136;-80
2023/12/16 02:16:49;;;;;;;6.30;1.70;;;6.10;99.90;;;;;;5014039;28;20480;-80
2023/12/16 02:19:26;;;;;;;3.60;1.75;;;6.10;99.90;;;;;;5017953;28;20096;-78
2023/12/16 02:21:52;;;;;;;4.10;2.03;;;6.10;99.90;;;;;;5013664;28;20022;-79
2023/12/16 02:24:19;;;;;;;4.72;2.25;;;6.10;99.90;;;;;;5013102;28;20044;-80
2023/12/16 02:26:45;;;;;;;6.88;2.00;;;6.10;99.80;;;;;;5019237;28;20041;-79
2023/12/16 02:29:10;;;;;;;3.92;1.73;;;6.10;99.70;;;;;;5018772;28;20037;-79
2023/12/16 02:31:36;;;;;;;2.85;1.52;;;6.10;99.80;;;;;;5020109;28;20073;-79
2023/12/16 02:34:01;;;;;;;1.77;1.10;;;6.10;99.60;;;;;;5010961;28;20056;-79
2023/12/16 02:36:27;;;;;;;5.72;2.50;;;6.10;99.50;;;;;;5014916;28;20165;-79
2023/12/16 02:38:52;;;;;;;4.22;1.58;;;6.10;99.40;;;;;;5015786;28;20037;-80
2023/12/16 02:41:17;;;;;;;4.45;1.98;;;6.10;99.40;;;;;;5019852;28;20142;-80
2023/12/16 02:43:43;;;;;;;2.50;1.30;;;6.10;99.30;;;;;;5016321;28;20061;-80
2023/12/16 02:46:09;;;;;;;4.95;1.92;;;6.10;99.20;;;;;;5015885;28;20138;-78
2023/12/16 02:48:35;;;;;;;6.10;1.55;;;6.20;99.10;;;;;;5017154;28;20354;-79
2023/12/16 02:51:00;;;;;;;3.58;1.45;;;6.20;99.00;;;;;;5013790;28;20033;-79
2023/12/16 02:53:27;;;;;;;5.95;2.00;;;6.10;99.10;;;;;;5013624;28;20060;-80
2023/12/16 02:55:52;;;;;;;3.58;1.80;;;6.20;99.00;;;;;;5022394;28;20026;-79
2023/12/16 02:58:18;;;;;;;6.45;1.92;;;6.20;99.00;;;;;;5022424;28;20071;-79
2023/12/16 03:00:43;;;;;;;2.72;1.60;;;6.20;98.80;;;;;;5021551;28;20423;-79
2023/12/16 03:03:09;;;;;;;7.32;1.55;;;6.20;98.80;;;;;;5016128;28;20033;-80
2023/12/16 03:05:34;;;;;;;2.72;1.10;;;6.20;98.70;;;;;;5015275;28;20403;-79
2023/12/16 03:08:00;;;;;;;3.47;1.73;;;6.20;98.70;;;;;;5021391;28;20060;-79
2023/12/16 03:10:25;;;;;;;5.25;1.67;;;6.10;98.70;;;;;;5018483;28;20040;-79
2023/12/16 03:12:50;;;;;;;6.00;1.50;;;6.10;98.70;;;;;;5018083;28;20373;-80
2023/12/16 03:15:16;;;;;;;5.75;1.65;;;6.20;98.60;;;;;;5012703;28;20040;-79
2023/12/16 03:17:43;;;;;;;3.63;1.60;;;6.10;98.60;;;;;;5016780;28;20102;-80
2023/12/16 03:20:09;;;;;;;3.45;1.40;;;6.10;98.60;;;;;;5022884;28;20029;-80
2023/12/16 03:22:35;;;;;;;3.22;1.45;;;6.10;98.60;;;;;;5015027;28;20033;-79
2023/12/16 03:25:00;;;;;;;3.00;1.42;;;6.10;98.50;;;;;;5015604;28;20120;-79
2023/12/16 03:27:26;;;;;;;3.80;1.48;;;6.10;98.50;;;;;;5011480;28;20896;-79
2023/12/16 03:29:52;;;;;;;4.75;1.92;;;6.10;98.50;;;;;;5015219;28;20349;-79
2023/12/16 03:32:17;;;;;;;2.75;1.48;;;6.10;98.40;;;;;;5018822;28;20042;-79
2023/12/16 03:34:42;;;;;;;4.95;1.85;;;6.20;98.20;;;;;;5014250;28;20044;-79
2023/12/16 03:37:08;;;;;;;3.15;1.40;;;6.20;98.20;;;;;;5020391;28;20036;-80
2023/12/16 03:39:33;;;;;;;2.97;1.42;;;6.20;98.00;;;;;;5022255;28;20026;-80
2023/12/16 03:41:59;;;;;;;4.82;1.75;;;6.20;97.90;;;;;;5011901;28;20026;-79
2023/12/16 03:44:24;;;;;;;3.45;1.55;;;6.20;98.00;;;;;;5018567;28;20040;-78
2023/12/16 03:46:50;;;;;;;5.78;1.90;;;6.20;97.90;;;;;;5016403;28;20473;-79
2023/12/16 03:49:15;;;;;;;2.40;1.65;;;6.20;97.90;;;;;;5012511;28;20125;-79
2023/12/16 03:51:41;;;;;;;3.92;1.80;;;6.20;97.80;;;;;;5017528;28;20041;-79
2023/12/16 03:54:06;;;;;;;5.28;2.42;;;6.20;97.80;;;;;;5018933;28;20112;-78
2023/12/16 03:56:32;;;;;;;2.60;1.45;;;6.20;97.80;;;;;;5023215;28;20063;-80
2023/12/16 03:58:57;;;;;;;1.95;1.33;;;6.20;97.80;;;;;;5021996;28;20068;-79
2023/12/16 04:01:23;;;;;;;3.67;1.85;;;6.20;97.60;;;;;;5018981;28;20037;-78
2023/12/16 04:03:48;;;;;;;1.95;1.38;;;6.20;97.70;;;;;;5020408;28;20072;-78
2023/12/16 04:06:14;;;;;;;2.53;1.67;;;6.30;97.30;;;;;;5021786;28;20058;-78
2023/12/16 04:08:41;;;;;;;3.20;1.73;;;6.30;97.40;;;;;;5018021;28;20435;-78
2023/12/16 04:11:07;;;;;;;1.95;0.95;;;6.20;97.30;;;;;;5019346;28;20041;-78
2023/12/16 04:13:35;;;;;;;3.45;1.52;;;6.20;97.20;;;;;;5019902;28;20030;-78
2023/12/16 04:16:03;;;;;;;2.15;1.00;;;6.30;96.70;;;;;;5024888;28;20175;-78
2023/12/16 04:18:29;;;;;;;4.05;1.95;;;6.30;96.50;;;;;;5019990;28;20037;-79
2023/12/16 04:20:55;;;;;;;2.55;1.38;;;6.40;96.30;;;;;;5021202;28;20101;-78
2023/12/16 04:23:20;;;;;;;2.38;1.40;;;6.40;96.20;;;;;;5017076;28;20033;-78
2023/12/16 04:25:46;;;;;;;1.98;1.30;;;6.30;96.00;;;;;;5016717;28;20037;-79
2023/12/16 04:28:11;;;;;;;2.13;1.15;;;6.40;95.60;;;;;;5020307;28;20038;-79
2023/12/16 04:30:37;;;;;;;2.60;1.33;;;6.40;95.60;;;;;;5021109;28;20056;-79
2023/12/16 04:33:03;;;;;;;3.13;1.35;;;6.40;95.60;;;;;;5016317;28;20462;-79
2023/12/16 04:35:28;;;;;;;5.00;2.13;;;6.40;95.40;;;;;;5018613;28;20116;-78
2023/12/16 04:37:53;;;;;;;2.55;1.23;;;6.40;95.30;;;;;;5012869;28;20045;-79
2023/12/16 04:40:20;;;;;;;1.33;1.02;;;6.40;95.20;;;;;;5019400;28;20469;-78
2023/12/16 04:42:46;;;;;;;3.90;1.75;;;6.40;95.10;;;;;;5020354;28;20057;-79
2023/12/16 04:45:11;;;;;;;4.28;1.40;;;6.40;95.20;;;;;;5020385;28;20140;-79
2023/12/16 04:47:37;;;;;;;1.92;1.25;;;6.50;94.50;;;;;;5017131;28;20100;-78
2023/12/16 04:50:03;;;;;;;1.50;1.02;;;6.50;94.40;;;;;;5012407;28;20611;-78
2023/12/16 04:52:28;;;;;;;2.03;1.40;;;6.40;94.90;;;;;;5023129;28;20041;-79
2023/12/16 04:54:54;;;;;;;4.18;1.20;;;6.40;94.80;;;;;;5020940;28;20041;-79
2023/12/16 04:57:19;;;;;;;4.00;1.02;;;6.30;94.90;;;;;;5028358;28;20025;-79
2023/12/16 04:59:45;;;;;;;2.70;1.42;;;6.30;94.90;;;;;;5024704;28;20109;-79
2023/12/16 05:02:10;;;;;;;3.47;1.38;;;6.20;94.80;;;;;;5020902;28;20453;-79
2023/12/16 05:04:36;;;;;;;5.30;1.50;;;6.10;95.10;;;;;;5023659;28;20034;-78
2023/12/16 05:07:02;;;;;;;1.85;1.00;;;6.10;95.20;;;;;;5025048;28;20076;-79
2023/12/16 05:09:27;;;;;;;1.27;0.90;;;6.00;95.40;;;;;;5021135;28;20481;-78
2023/12/16 05:11:53;;;;;;;3.60;0.88;;;5.90;95.30;;;;;;5024776;28;20037;-78
2023/12/16 05:14:18;;;;;;;3.00;1.42;;;5.90;95.40;;;;;;5024252;28;20437;-79
2023/12/16 05:16:44;;;;;;;2.22;1.17;;;5.80;95.50;;;;;;5024138;28;20077;-78
2023/12/16 05:19:09;;;;;;;2.60;1.13;;;5.80;95.20;;;;;;5020565;28;20147;-79
2023/12/16 05:21:35;;;;;;;2.30;1.15;;;5.80;95.00;;;;;;5025147;28;20111;-78
2023/12/16 05:24:00;;;;;;;3.20;1.45;;;5.70;95.20;;;;;;5022756;28;20469;-78
2023/12/16 05:26:26;;;;;;;1.65;0.95;;;5.80;95.30;;;;;;5021165;28;20038;-76
2023/12/16 05:28:51;;;;;;;2.95;1.25;;;5.70;95.10;;;;;;5023278;28;20080;-77
2023/12/16 05:31:17;;;;;;;2.53;1.42;;;5.70;95.10;;;;;;5022936;28;20466;-77
2023/12/16 05:33:43;;;;;;;1.80;1.10;;;5.70;95.30;;;;;;5019833;28;20055;-77
2023/12/16 05:36:09;;;;;;;6.28;0.93;;;5.70;95.40;;;;;;5023062;28;20076;-76
2023/12/16 05:38:34;;;;;;;1.63;0.90;;;5.60;95.60;;;;;;5017196;28;20080;-77
2023/12/16 05:41:00;;;;;;;2.67;0.93;;;5.60;95.60;;;;;;5022320;28;20454;-77
2023/12/16 05:43:26;;;;;;;2.47;1.30;;;5.60;95.70;;;;;;5021122;28;20144;-77
2023/12/16 05:45:51;;;;;;;2.45;0.90;;;5.60;95.70;;;;;;5026345;28;20108;-77
2023/12/16 05:48:17;;;;;;;3.28;1.05;;;5.60;95.50;;;;;;5021783;28;20343;-77
2023/12/16 05:50:42;;;;;;;4.85;1.15;;;5.60;95.60;;;;;;5017135;28;20388;-77
2023/12/16 05:53:08;;;;;;;1.77;1.13;;;5.60;95.60;;;;;;5020076;28;20045;-77
2023/12/16 05:55:33;;;;;;;1.38;1.15;;;5.60;95.70;;;;;;5020837;28;20034;-77
2023/12/16 05:57:59;;;;;;;2.08;1.02;;;5.60;95.70;;;;;;5019772;28;20026;-77
2023/12/16 06:00:24;;;;;;;3.58;1.10;;;5.60;95.60;;;;;;5019576;28;20034;-77
2023/12/16 06:02:50;;;;;;;3.78;1.70;;;5.60;95.60;;;;;;5022563;28;20052;-77
2023/12/16 06:05:16;;;;;;;3.75;1.10;;;5.60;95.70;;;;;;5016948;28;20365;-76
2023/12/16 06:07:41;;;;;;;1.95;0.90;;;5.60;95.60;;;;;;5024334;28;20415;-76
2023/12/16 06:10:07;;;;;;;4.32;1.13;;;5.60;95.50;;;;;;5021579;28;20210;-76
2023/12/16 06:12:33;;;;;;;1.75;0.82;;;5.60;95.50;;;;;;5018634;28;20045;-77
2023/12/16 06:14:58;;;;;;;2.97;1.05;;;5.70;95.30;;;;;;5023803;28;20370;-76
2023/12/16 06:17:23;;;;;;;3.30;1.58;;;5.70;95.20;;;;;;5025937;28;20032;-77
2023/12/16 06:19:49;;;;;;;4.20;1.60;;;5.70;95.40;;;;;;5014450;28;20776;-77
2023/12/16 06:22:14;;;;;;;3.95;1.42;;;5.70;95.00;;;;;;5010505;28;20034;-77
2023/12/16 06:24:40;;;;;;;5.97;1.48;;;5.70;95.10;;;;;;5022494;28;20025;-77
2023/12/16 06:27:06;;;;;;;2.47;0.85;;;5.70;95.00;;;;;;5026753;28;20030;-77
2023/12/16 06:29:31;;;;;;;2.58;1.20;;;5.80;94.80;;;;;;5020314;28;20038;-76
2023/12/16 06:31:57;;;;;;;4.18;1.48;;;5.80;94.90;;;;;;5024185;28;20044;-76
2023/12/16 06:34:23;;;;;;;1.23;0.90;;;5.80;94.80;;;;;;5027146;28;20033;-76
2023/12/16 06:36:49;;;;;;;2.05;1.02;;;5.80;94.70;;;;;;5031145;28;20033;-76
2023/12/16 06:39:14;;;;;;;3.00;1.05;;;5.80;94.70;;;;;;5023648;28;20044;-76
2023/12/16 06:41:40;;;;;;;3.33;1.30;;;5.90;94.50;;;;;;5020355;28;20040;-76
2023/12/16 06:44:06;;;;;;;2.42;1.10;;;5.90;94.30;;;;;;5026447;28;20030;-76
2023/12/16 06:46:31;;;;;;;2.88;1.08;;;5.90;94.50;;;;;;5020393;28;20454;-76
2023/12/16 06:48:57;;;;;;;4.35;1.75;;;5.90;94.30;;;;;;5028446;28;20052;-77
2023/12/16 06:51:22;;;;;;;2.20;0.85;;;6.00;94.20;;;;;;5017700;28;20100;-76
2023/12/16 06:53:48;;;;;;;1.33;0.80;;;6.00;94.00;;;;;;5018072;28;20465;-76
2023/12/16 06:56:13;;;;;;;2.92;0.93;;;6.00;94.00;;;;;;5011240;28;20103;-76
2023/12/16 06:58:40;;;;;;;2.83;1.08;;;6.00;94.00;;;;;;5023135;28;20065;-76
2023/12/16 07:01:08;;;;;;;4.50;1.45;;;6.10;94.20;;;;;;5022701;28;20030;-77
2023/12/16 07:03:34;;;;;;;1.40;0.70;;;6.10;93.90;;;;;;5015425;28;20029;-77
2023/12/16 07:06:01;;;;;;;4.28;1.27;;;6.10;93.60;;;;;;5013933;28;20057;-76
2023/12/16 07:08:26;;;;;;;2.72;1.17;;;6.10;93.70;;;;;;5018436;28;20450;-76
2023/12/16 07:10:52;;;;;;;1.27;0.85;;;6.10;93.90;;;;;;5016356;28;20091;-76
2023/12/16 07:13:17;;;;;;;5.72;0.98;;;6.10;93.90;;;;;;5011932;28;20037;-76
2023/12/16 07:15:43;;;;;;;1.95;0.98;;;6.10;93.70;;;;;;5013816;28;20108;-77
2023/12/16 07:18:08;;;;;;;2.33;1.10;;;6.10;93.70;;;;;;5006380;28;20421;-77
2023/12/16 07:20:34;;;;;;;2.20;1.10;;;6.10;93.50;;;;;;5016013;28;20116;-77
2023/12/16 07:22:59;;;;;;;2.08;1.13;;;6.10;93.60;;;;;;5013565;28;20438;-77
2023/12/16 07:25:25;;;;;;;2.25;1.00;;;6.10;93.30;;;;;;5015989;28;20061;-76
2023/12/16 07:27:50;;;;;;;3.20;1.10;;;6.10;93.60;;;;;;5012441;28;20454;-77
2023/12/16 07:30:16;;;;;;;3.95;1.17;;;6.10;93.60;;;;;;5021931;28;20070;-76
2023/12/16 07:32:42;;;;;;;2.85;1.15;;;6.10;93.50;;;;;;5011574;28;20144;-77
2023/12/16 07:35:12;;;;;;;1.60;1.10;;;6.20;93.30;;;;;;5013924;28;20033;-77
2023/12/16 07:37:40;;;;;;;2.20;1.05;;;6.20;93.40;;;;;;5012289;28;20025;-77
2023/12/16 07:40:07;;;;;;;2.28;1.02;;;6.10;93.50;;;;;;5007810;28;20105;-77
2023/12/16 07:42:32;;;;;;;2.38;0.75;;;6.10;93.50;;;;;;5017621;28;20026;-76
2023/12/16 07:44:58;;;;;;;4.43;1.30;;;6.10;93.70;;;;;;5010540;28;20030;-76
2023/12/16 07:47:23;;;;;;;1.95;1.10;;;6.10;93.60;;;;;;5013054;28;20339;-77
2023/12/16 07:49:49;;;;;;;2.03;0.68;;;6.10;93.30;;;;;;5016148;28;20115;-76
2023/12/16 07:52:16;;;;;;;2.83;1.08;;;6.10;93.90;;;;;;5013009;28;20563;-77
2023/12/16 07:54:42;;;;;;;2.70;1.00;;;6.10;93.80;;;;;;5013803;28;20342;-76
2023/12/16 07:57:07;;;;;;;2.63;1.00;;;6.10;94.00;;;;;;5008441;28;20026;-76
2023/12/16 07:59:33;;;;;;;3.03;1.42;;;6.10;93.80;;;;;;5005618;28;20041;-76
2023/12/16 08:02:00;;;;;;;4.40;1.17;;;6.10;94.00;;;;;;5008520;28;20038;-78
2023/12/16 08:04:25;;;;;;;1.17;0.88;;;6.10;94.40;;;;;;5006941;28;20022;-78
2023/12/16 08:06:50;;;;;;;2.35;0.90;;;6.20;94.20;;;;;;5015806;28;20080;-78
2023/12/16 08:09:16;;;;;;;5.88;1.90;;;6.20;94.10;;;;;;5015266;28;20097;-76
2023/12/16 08:11:41;;;;;;;1.13;0.80;;;6.30;94.10;;;;;;5013210;28;20472;-77
2023/12/16 08:14:07;;;;;;;1.92;0.90;;;6.30;94.20;;;;;;5012358;28;20350;-76
2023/12/16 08:16:33;;;;;;;3.35;1.70;;;6.30;94.20;;;;;;5010927;28;20091;-76
2023/12/16 08:18:58;;;;;;;2.58;1.00;;;6.50;93.50;;;;;;5010223;28;20062;-76
2023/12/16 08:21:24;;;;;;;2.80;0.73;;;6.50;93.70;;;;;;5010970;28;20084;-75
2023/12/16 08:23:49;;;;;;;4.45;1.08;;;6.50;93.60;;;;;;5019176;28;20492;-76
2023/12/16 08:26:15;;;;;;;2.13;1.00;;;6.60;94.10;;;;;;5016488;28;20029;-73
2023/12/16 08:28:41;;;;;;;3.70;1.38;;;6.50;94.00;;;;;;5018382;28;20529;-74
2023/12/16 08:31:07;;;;;;;2.45;0.93;;;6.50;94.00;;;;;;5010994;28;20041;-73
2023/12/16 08:33:33;;;;;;;4.82;1.70;;;6.50;94.40;;;;;;5014291;28;20061;-75
2023/12/16 08:35:59;;;;;;;4.63;1.15;;;6.50;94.80;;;;;;5015395;28;20030;-75
2023/12/16 08:38:24;;;;;;;3.67;1.30;;;6.50;95.20;;;;;;5012449;28;20044;-75
2023/12/16 08:40:53;;;;;;;5.90;1.25;;;6.50;95.20;;;;;;5011341;28;20078;-74
2023/12/16 08:43:19;;;;;;;6.55;2.05;;;6.50;95.20;;;;;;5011846;28;20346;-76
2023/12/16 08:45:44;;;;;;;3.17;1.30;;;6.50;95.70;;;;;;5011614;28;20022;-77
2023/12/16 08:48:10;;;;;;;2.78;1.20;;;6.40;95.90;;;;;;5016819;28;20373;-76
2023/12/16 08:50:35;;;;;;;3.25;1.02;;;6.40;96.10;;;;;;5010976;28;20042;-76
2023/12/16 08:53:01;;;;;;;5.55;2.58;;;6.40;96.50;;;;;;5021110;28;20117;-76
2023/12/16 08:55:27;;;;;;;4.75;1.55;;;6.40;96.40;;;;;;5017806;28;20042;-76
2023/12/16 08:57:53;;;;;;;3.00;1.20;;;6.40;96.50;;;;;;5014189;28;20037;-77
2023/12/16 09:00:19;;;;;;;4.22;1.58;;;6.40;96.60;;;;;;5014587;28;20038;-77
2023/12/16 09:02:44;;;;;;;6.50;1.70;;;6.40;97.00;;;;;;5016514;28;20371;-76
2023/12/16 09:05:10;;;;;;;7.35;1.52;;;6.30;97.20;;;;;;5017242;28;20044;-76
2023/12/16 09:07:35;;;;;;;3.30;1.65;;;6.30;97.50;;;;;;5018088;28;20058;-77
2023/12/16 09:10:01;;;;;;;4.13;1.85;;;6.40;97.60;;;;;;5016358;28;20045;-77
2023/12/16 09:12:26;;;;;;;7.88;1.98;;;6.30;97.80;;;;;;5011041;28;20379;-76
2023/12/16 09:14:52;;;;;;;6.65;1.85;;;6.30;97.80;;;;;;5018691;28;20037;-76
2023/12/16 09:17:17;;;;;;;4.85;1.88;;;6.30;98.00;;;;;;5023408;28;20449;-76
2023/12/16 09:19:43;;;;;;;4.15;1.88;;;6.30;98.10;;;;;;5015379;28;20030;-76
2023/12/16 09:22:09;;;;;;;3.65;1.60;;;6.30;98.10;;;;;;5020947;28;20410;-76
2023/12/16 09:24:34;;;;;;;6.65;1.88;;;6.30;98.20;;;;;;5024195;28;20029;-76
2023/12/16 09:27:00;;;;;;;4.82;1.90;;;6.30;98.40;;;;;;5011947;28;20033;-76
2023/12/16 09:29:25;;;;;;;4.13;1.92;;;6.20;98.50;;;;;;5013841;28;20026;-76
2023/12/16 09:31:51;;;;;;;5.78;2.10;;;6.20;98.60;;;;;;5011467;28;20042;-77
2023/12/16 09:34:16;;;;;;;4.03;1.77;;;6.20;98.70;;;;;;5013409;28;20033;-76
2023/12/16 09:36:42;;;;;;;4.75;1.48;;;6.20;98.70;;;;;;5017351;28;20025;-76
2023/12/16 09:39:10;;;;;;;6.15;2.33;;;6.20;98.70;;;;;;5012418;28;20105;-76
2023/12/16 09:41:42;;;;;;;4.50;1.67;;;6.20;98.80;;;;;;5010522;28;20446;-76
2023/12/16 09:44:09;;;;;;;6.57;2.42;;;6.20;98.80;;;;;;5011028;28;20378;-76
2023/12/16 09:46:36;;;;;;;7.05;1.48;;;6.30;98.90;;;;;;5022053;28;20029;-77
2023/12/16 09:49:02;;;;;;;3.35;1.50;;;6.30;98.60;;;;;;5020912;28;20053;-77
2023/12/16 09:51:28;;;;;;;4.78;1.85;;;6.30;98.40;;;;;;5019074;28;20088;-76
2023/12/16 09:53:54;;;;;;;3.67;1.52;;;6.40;98.30;;;;;;5017909;28;20037;-77
2023/12/16 09:56:20;;;;;;;4.97;2.05;;;6.40;98.20;;;;;;5028166;28;20045;-76
2023/12/16 09:58:49;;;;;;;4.72;2.35;;;6.40;98.00;;;;;;5022232;28;20037;-76
2023/12/16 10:01:17;;;;;;;5.10;1.98;;;6.40;97.90;;;;;;5021156;28;20045;-76
2023/12/16 10:03:45;;;;;;;2.10;1.55;;;6.50;98.00;;;;;;5015132;28;20034;-76
2023/12/16 10:06:11;;;;;;;4.57;2.13;;;6.50;98.00;;;;;;5011574;28;20046;-77
2023/12/16 10:08:37;;;;;;;3.95;1.80;;;6.50;98.00;;;;;;5021386;28;20207;-76
2023/12/16 10:11:03;;;;;;;4.65;1.92;;;6.40;98.10;;;;;;5019242;28;20680;-77
2023/12/16 10:13:30;;;;;;;5.50;2.10;;;6.50;98.10;;;;;;5022325;28;20022;-77
2023/12/16 10:15:56;;;;;;;4.07;1.77;;;6.50;98.10;;;;;;5026381;28;20037;-76
2023/12/16 10:18:22;;;;;;;5.30;2.22;;;6.50;98.30;;;;;;5019346;28;20049;-76
2023/12/16 10:20:48;;;;;;;6.70;2.42;;;6.50;98.50;;;;;;5018514;28;20116;-76
2023/12/16 10:23:13;;;;;;;3.13;2.17;;;6.50;98.50;;;;;;5016444;28;20033;-77
2023/12/16 10:25:40;;;;;;;4.13;2.13;;;6.50;98.60;;;;;;5019821;28;20136;-76
2023/12/16 10:28:06;;;;;;;5.10;2.33;;;6.50;98.70;;;;;;5027980;28;20469;-76
2023/12/16 10:30:32;;;;;;;9.23;2.95;;;6.50;98.90;;;;;;5025304;28;20079;-77
2023/12/16 10:33:02;;;;;;;5.18;2.65;;;6.40;99.10;;;;;;5013599;28;20034;-76
2023/12/16 10:35:28;;;;;;;2.40;1.70;;;6.50;99.20;;;;;;5012115;28;20054;-76
2023/12/16 10:37:53;;;;;;;7.50;2.63;;;6.50;99.30;;;;;;5011318;28;20029;-76
2023/12/16 10:40:19;;;;;;;9.35;2.65;;;6.50;99.40;;;;;;5017795;28;20449;-76
2023/12/16 10:42:45;;;;;;;4.43;1.90;;;6.50;99.60;;;;;;5014527;28;20030;-76
2023/12/16 10:45:12;;;;;;;6.13;2.70;;;6.40;99.60;;;;;;5013443;28;20044;-76
2023/12/16 10:47:38;;;;;;;4.38;2.40;;;6.40;99.80;;;;;;5013917;28;20044;-76
2023/12/16 10:50:06;;;;;;;5.72;2.63;;;6.50;99.90;;;;;;5010245;28;20088;-76
2023/12/16 10:52:45;;;;;;;3.58;2.45;;;6.50;99.90;;;;;;5011877;28;20534;-76
2023/12/16 10:55:22;;;;;;;5.60;2.55;;;6.50;99.90;;;;;;5015025;28;20396;-74
2023/12/16 10:58:12;;;;;;;4.93;2.92;;;6.50;99.90;;;;;;5017400;28;20548;-74
2023/12/16 11:00:41;;;;;;;5.90;3.20;;;6.50;99.90;;;;;;5009832;28;20105;-73
2023/12/16 11:03:23;;;;;;;7.20;2.90;;;6.60;99.90;;;;;;5011987;28;20106;-74
2023/12/16 11:05:59;;;;;;;4.82;2.83;;;6.60;99.90;;;;;;5015237;28;20133;-74
2023/12/16 11:08:26;;;;;;;6.05;2.75;;;6.60;99.90;;;;;;5014312;28;20157;-73
2023/12/16 11:10:54;;;;;;;8.15;3.65;;;6.70;99.90;;;;;;5013953;28;20079;-74
2023/12/16 11:13:21;;;;;;;6.70;3.72;;;6.70;99.80;;;;;;5020229;28;20036;-75
2023/12/16 11:15:50;;;;;;;8.88;3.38;;;6.70;99.70;;;;;;5010833;28;20486;-75
2023/12/16 11:18:21;;;;;;;10.60;3.80;;;6.80;99.70;;;;;;5017273;28;20099;-75
2023/12/16 11:20:52;;;;;;;12.70;3.25;;;6.80;99.60;;;;;;5011621;28;20389;-75
2023/12/16 11:23:18;;;;;;;5.25;2.63;;;6.80;99.50;;;;;;5016746;28;20038;-76
2023/12/16 11:25:46;;;;;;;5.68;3.05;;;6.80;99.50;;;;;;5014442;28;20465;-75
2023/12/16 11:28:17;;;;;;;4.95;2.78;;;6.90;99.40;;;;;;5012306;28;20493;-76
2023/12/16 11:30:44;;;;;;;8.35;3.95;;;6.90;99.40;;;;;;5013831;28;20060;-76
2023/12/16 11:33:09;;;;;;;6.63;3.25;;;6.90;99.40;;;;;;5013161;28;20056;-75
2023/12/16 11:35:35;;;;;;;6.80;2.60;;;6.90;99.40;;;;;;5018866;28;20345;-76
2023/12/16 11:38:01;;;;;;;5.28;2.85;;;6.90;99.40;;;;;;5019957;28;20033;-75
2023/12/16 11:40:41;;;;;;;5.13;2.75;;;6.90;99.40;;;;;;5015081;28;20046;-75
2023/12/16 11:43:10;;;;;;;7.95;3.58;;;6.90;99.30;;;;;;5016772;28;20075;-75
2023/12/16 11:45:44;;;;;;;7.63;2.38;;;6.90;99.30;;;;;;5027491;28;20042;-74
2023/12/16 11:48:14;;;;;;;6.45;2.42;;;6.90;99.30;;;;;;5009637;28;20655;-74
2023/12/16 11:50:41;;;;;;;6.38;3.78;;;6.90;99.40;;;;;;5009847;28;20084;-75
2023/12/16 11:53:12;;;;;;;5.20;3.40;;;7.00;99.30;;;;;;5017466;28;20457;-74
2023/12/16 11:55:39;;;;;;;6.63;2.63;;;7.00;99.20;;;;;;5019107;28;20041;-75
2023/12/16 11:58:05;;;;;;;5.63;3.20;;;7.00;99.20;;;;;;5010446;28;20150;-74
2023/12/16 12:00:31;;;;;;;5.80;3.13;;;7.00;99.20;;;;;;5019841;28;20022;-74
2023/12/16 12:03:00;;;;;;;6.30;3.38;;;7.00;99.20;;;;;;5014284;28;20114;-74
2023/12/16 12:05:29;;;;;;;8.38;3.42;;;7.00;99.30;;;;;;5013663;28;20041;-75
2023/12/16 12:07:55;;;;;;;8.70;3.60;;;7.00;99.30;;;;;;5018774;28;20030;-75
2023/12/16 12:10:22;;;;;;;6.28;4.03;;;7.00;99.30;;;;;;5021785;28;20098;-73
2023/12/16 12:12:48;;;;;;;9.50;3.13;;;7.00;99.30;;;;;;5015593;28;20503;-74
2023/12/16 12:15:13;;;;;;;6.30;3.63;;;7.10;99.30;;;;;;5016117;28;20041;-73
2023/12/16 12:17:39;;;;;;;8.40;3.40;;;7.10;99.30;;;;;;5015148;28;20021;-74
2023/12/16 12:20:06;;;;;;;9.95;3.45;;;7.10;99.30;;;;;;5013684;28;20115;-74
2023/12/16 12:22:33;;;;;;;6.30;2.80;;;7.10;99.30;;;;;;5032015;28;20060;-74
2023/12/16 12:24:58;;;;;;;6.10;3.22;;;7.10;99.30;;;;;;5032610;28;20053;-73
2023/12/16 12:27:24;;;;;;;8.07;3.80;;;7.20;99.40;;;;;;5032002;28;20072;-74
2023/12/16 12:29:57;;;;;;;10.35;4.10;;;7.10;99.50;;;;;;5030301;28;20110;-74
2023/12/16 12:32:24;;;;;;;8.02;3.53;;;7.10;99.70;;;;;;5035776;28;20125;-74
2023/12/16 12:35:01;;;;;;;7.47;3.80;;;7.10;99.90;;;;;;5028212;28;20028;-73
2023/12/16 12:37:27;;;;;;;6.90;3.20;;;7.10;99.90;;;;;;5023563;28;20125;-70
2023/12/16 12:39:56;;;;;;;7.70;3.85;;;7.10;99.90;;;;;;5032998;28;20045;-74
2023/12/16 12:42:21;;;;;;;7.30;3.05;;;7.10;99.90;;;;;;5040704;28;20073;-74
2023/12/16 12:44:52;;;;;;;8.27;3.65;;;7.10;99.90;;;;;;5032209;28;20077;-74
2023/12/16 12:47:32;;;;;;;6.10;3.40;;;7.10;99.90;;;;;;5031705;28;20475;-75
2023/12/16 12:50:01;;;;;;;9.23;4.15;;;7.10;99.90;;;;;;5036995;28;20074;-75
2023/12/16 12:52:37;;;;;;;7.93;3.97;;;7.10;99.90;;;;;;5034595;28;20104;-74